createdAt,value
2022-12-08T00:01:25.887Z,8.60
2022-12-08T00:03:53.911Z,8.93
2022-12-08T00:06:55.308Z,7.88
2022-12-08T00:09:24.371Z,10.68
2022-12-08T00:12:00.181Z,12.68
2022-12-08T00:14:32.890Z,7.53
2022-12-08T00:17:00.552Z,12.23
2022-12-08T00:19:28.386Z,9.07
2022-12-08T00:21:55.838Z,8.75
2022-12-08T00:24:24.555Z,7.05
2022-12-08T00:26:52.305Z,14.65
2022-12-08T00:29:19.286Z,8.48
2022-12-08T00:31:46.377Z,10.02
2022-12-08T00:34:14.311Z,10.45
2022-12-08T00:36:42.576Z,8.82
2022-12-08T00:39:14.667Z,9.48
2022-12-08T00:42:00.116Z,8.90
2022-12-08T00:44:27.900Z,6.18
2022-12-08T00:46:54.952Z,7.60
2022-12-08T00:49:22.582Z,6.65
2022-12-08T00:51:49.373Z,5.53
2022-12-08T00:54:16.771Z,7.15
2022-12-08T00:56:43.485Z,13.07
2022-12-08T00:59:10.389Z,6.22
2022-12-08T01:01:37.425Z,8.02
2022-12-08T01:04:10.737Z,7.07
2022-12-08T01:06:38.604Z,4.15
2022-12-08T01:09:07.636Z,7.55
2022-12-08T01:11:35.137Z,4.95
2022-12-08T01:14:02.962Z,7.47
2022-12-08T01:16:33.500Z,6.22
2022-12-08T01:19:00.880Z,5.40
2022-12-08T01:21:28.703Z,4.95
2022-12-08T01:23:55.959Z,6.43
2022-12-08T01:26:22.695Z,6.72
2022-12-08T01:28:49.407Z,7.60
2022-12-08T01:31:19.596Z,6.32
2022-12-08T01:33:47.936Z,6.00
2022-12-08T01:36:30.416Z,7.72
2022-12-08T01:38:58.957Z,5.63
2022-12-08T01:41:28.790Z,5.82
2022-12-08T01:44:23.149Z,7.80
2022-12-08T01:46:52.572Z,5.40
2022-12-08T01:49:32.840Z,7.05
2022-12-08T01:52:16.411Z,6.35
2022-12-08T01:54:52.501Z,4.75
2022-12-08T01:57:31.314Z,4.47
2022-12-08T02:00:07.090Z,5.25
2022-12-08T02:03:01.238Z,5.80
2022-12-08T02:05:32.435Z,4.63
2022-12-08T02:08:01.987Z,7.43
2022-12-08T02:10:31.537Z,6.50
2022-12-08T02:12:59.844Z,7.72
2022-12-08T02:15:43.567Z,8.63
2022-12-08T02:18:41.101Z,8.85
2022-12-08T02:21:33.696Z,6.80
2022-12-08T02:24:15.695Z,9.02
2022-12-08T02:27:21.141Z,5.25
2022-12-08T02:30:18.827Z,7.68
2022-12-08T02:33:05.682Z,5.60
2022-12-08T02:35:53.906Z,6.22
2022-12-08T02:38:35.856Z,6.25
2022-12-08T02:41:26.898Z,5.20
2022-12-08T02:44:06.629Z,4.32
2022-12-08T02:46:41.179Z,7.40
2022-12-08T02:49:07.989Z,6.45
2022-12-08T02:51:34.657Z,7.28
2022-12-08T02:54:02.909Z,5.57
2022-12-08T02:57:31.279Z,7.10
2022-12-08T03:00:13.460Z,5.35
2022-12-08T03:03:08.037Z,5.03
2022-12-08T03:05:59.907Z,9.80
2022-12-08T03:08:50.615Z,4.68
2022-12-08T03:11:26.972Z,4.82
2022-12-08T03:13:57.848Z,5.43
2022-12-08T03:16:29.652Z,3.90
2022-12-08T03:19:14.542Z,8.35
2022-12-08T03:21:44.412Z,3.80
2022-12-08T03:24:13.088Z,5.50
2022-12-08T03:27:32.016Z,3.55
2022-12-08T03:30:00.673Z,3.50
2022-12-08T03:32:40.236Z,4.18
2022-12-08T03:35:13.623Z,4.03
2022-12-08T03:37:40.992Z,4.15
2022-12-08T03:40:10.784Z,6.68
2022-12-08T03:42:37.445Z,4.10
2022-12-08T03:45:06.546Z,8.05
2022-12-08T03:47:33.236Z,5.35
2022-12-08T03:49:59.882Z,4.78
2022-12-08T03:52:26.593Z,5.03
2022-12-08T03:54:53.516Z,4.22
2022-12-08T03:57:21.197Z,5.25
2022-12-08T03:59:47.862Z,4.47
2022-12-08T04:02:14.665Z,5.57
2022-12-08T04:04:41.324Z,5.25
2022-12-08T04:07:07.989Z,6.03
2022-12-08T04:09:34.639Z,5.78
2022-12-08T04:12:01.311Z,5.70
2022-12-08T04:14:28.017Z,5.35
2022-12-08T04:16:54.697Z,6.35
2022-12-08T04:19:21.412Z,5.63
2022-12-08T04:21:48.158Z,6.03
2022-12-08T04:24:14.896Z,6.72
2022-12-08T04:26:41.586Z,5.78
2022-12-08T04:29:08.280Z,11.00
2022-12-08T04:31:35.021Z,6.82
2022-12-08T04:34:01.754Z,5.85
2022-12-08T04:36:28.434Z,6.15
2022-12-08T04:38:55.146Z,4.00
2022-12-08T04:41:21.843Z,7.47
2022-12-08T04:43:48.533Z,8.20
2022-12-08T04:46:15.259Z,5.97
2022-12-08T04:48:42.017Z,5.57
2022-12-08T04:51:17.583Z,6.70
2022-12-08T04:53:46.877Z,4.38
2022-12-08T04:56:18.724Z,4.63
2022-12-08T04:58:46.164Z,7.28
2022-12-08T05:01:13.522Z,7.35
2022-12-08T05:03:40.273Z,5.78
2022-12-08T05:06:07.447Z,5.20
2022-12-08T05:08:34.188Z,6.32
2022-12-08T05:11:06.071Z,4.88
2022-12-08T05:13:33.179Z,4.07
2022-12-08T05:16:07.752Z,4.22
2022-12-08T05:18:35.477Z,5.20
2022-12-08T05:21:02.738Z,5.00
2022-12-08T05:23:29.705Z,9.65
2022-12-08T05:25:57.220Z,5.50
2022-12-08T05:31:15.548Z,4.90
2022-12-08T05:33:42.922Z,4.13
2022-12-08T05:36:11.777Z,8.75
2022-12-08T05:38:38.986Z,5.28
2022-12-08T05:41:10.581Z,6.47
2022-12-08T05:43:37.249Z,6.03
2022-12-08T05:46:03.988Z,4.20
2022-12-08T05:48:30.789Z,4.32
2022-12-08T05:50:57.504Z,4.40
2022-12-08T05:53:24.336Z,6.13
2022-12-08T05:55:50.987Z,5.05
2022-12-08T05:58:20.322Z,3.63
2022-12-08T06:00:48.337Z,4.78
2022-12-08T06:03:16.439Z,5.18
2022-12-08T06:05:44.904Z,4.95
2022-12-08T06:08:11.953Z,4.43
2022-12-08T06:10:40.203Z,3.03
2022-12-08T06:13:06.931Z,4.97
2022-12-08T06:15:38.000Z,4.32
2022-12-08T06:18:05.520Z,5.95
2022-12-08T06:20:32.459Z,4.60
2022-12-08T06:22:59.168Z,7.75
2022-12-08T06:25:26.064Z,5.28
2022-12-08T06:27:52.804Z,5.20
2022-12-08T06:30:19.505Z,6.00
2022-12-08T06:32:46.230Z,6.88
2022-12-08T06:35:12.920Z,4.13
2022-12-08T06:37:39.700Z,5.18
2022-12-08T06:40:07.308Z,5.47
2022-12-08T06:42:44.153Z,6.82
2022-12-08T06:45:12.954Z,6.88
2022-12-08T06:47:39.736Z,5.68
2022-12-08T06:50:08.069Z,6.28
2022-12-08T06:52:40.885Z,7.47
2022-12-08T06:55:29.181Z,6.10
2022-12-08T06:57:59.506Z,8.25
2022-12-08T07:00:26.204Z,7.30
2022-12-08T07:02:52.917Z,6.72
2022-12-08T07:05:19.717Z,7.43
2022-12-08T07:07:46.471Z,6.22
2022-12-08T07:10:13.199Z,7.25
2022-12-08T07:12:39.836Z,6.38
2022-12-08T07:15:07.226Z,5.63
2022-12-08T07:17:33.934Z,10.15
2022-12-08T07:20:00.688Z,5.70
2022-12-08T07:22:27.348Z,6.93
2022-12-08T07:24:54.027Z,9.15
2022-12-08T07:27:20.677Z,8.45
2022-12-08T07:29:47.355Z,5.50
2022-12-08T07:32:14.472Z,7.20
2022-12-08T07:34:41.134Z,5.63
2022-12-08T07:37:07.883Z,10.60
2022-12-08T07:39:34.563Z,9.68
2022-12-08T07:42:01.265Z,7.38
2022-12-08T07:44:27.922Z,10.45
2022-12-08T07:46:56.914Z,7.93
2022-12-08T07:49:23.632Z,6.90
2022-12-08T07:51:50.342Z,7.15
2022-12-08T07:54:17.038Z,7.03
2022-12-08T07:56:43.726Z,10.00
2022-12-08T07:59:10.382Z,11.60
2022-12-08T08:01:37.173Z,10.20
2022-12-08T08:04:05.430Z,8.18
2022-12-08T08:06:33.713Z,6.80
2022-12-08T08:09:00.649Z,13.77
2022-12-08T08:11:27.504Z,8.18
2022-12-08T08:13:54.198Z,8.43
2022-12-08T08:16:21.594Z,8.80
2022-12-08T08:18:50.554Z,9.23
2022-12-08T08:24:05.807Z,10.55
2022-12-08T08:26:32.460Z,8.50
2022-12-08T08:28:59.211Z,7.90
2022-12-08T08:31:27.206Z,6.22
2022-12-08T08:33:55.862Z,6.30
2022-12-08T08:36:22.608Z,7.88
2022-12-08T08:38:49.304Z,10.52
2022-12-08T08:41:16.042Z,7.80
2022-12-08T08:43:42.759Z,8.35
2022-12-08T08:46:10.224Z,9.23
2022-12-08T08:48:38.066Z,9.93
2022-12-08T08:51:13.328Z,5.40
2022-12-08T08:53:40.941Z,9.80
2022-12-08T08:56:12.839Z,11.38
2022-12-08T08:58:39.696Z,7.10
2022-12-08T09:01:06.575Z,7.13
2022-12-08T09:03:33.847Z,7.85
2022-12-08T09:06:00.827Z,12.20
2022-12-08T09:08:27.644Z,10.95
2022-12-08T09:10:55.127Z,11.00
2022-12-08T09:13:22.469Z,9.70
2022-12-08T09:15:49.413Z,7.45
2022-12-08T09:18:16.198Z,8.15
2022-12-08T09:20:42.917Z,9.02
2022-12-08T09:23:09.592Z,10.48
2022-12-08T09:25:36.555Z,11.90
2022-12-08T09:28:03.447Z,10.00
2022-12-08T09:30:30.366Z,10.32
2022-12-08T09:32:57.232Z,7.88
2022-12-08T09:35:24.984Z,8.77
2022-12-08T09:37:51.711Z,12.32
2022-12-08T09:40:21.449Z,11.93
2022-12-08T09:42:55.777Z,13.77
2022-12-08T09:45:24.676Z,10.10
2022-12-08T09:48:04.980Z,10.13
2022-12-08T09:50:40.884Z,8.93
2022-12-08T09:53:44.358Z,7.88
2022-12-08T09:56:31.158Z,9.98
2022-12-08T09:59:17.003Z,14.77
2022-12-08T10:01:43.896Z,13.68
2022-12-08T10:04:22.673Z,13.93
2022-12-08T10:06:52.250Z,14.50
2022-12-08T10:09:37.615Z,13.55
2022-12-08T10:12:41.537Z,14.90
2022-12-08T10:15:26.369Z,14.23
2022-12-08T10:17:55.049Z,12.05
2022-12-08T10:20:25.960Z,15.00
2022-12-08T10:23:14.145Z,10.00
2022-12-08T10:25:56.685Z,12.98
2022-12-08T10:28:23.394Z,9.30
2022-12-08T10:30:50.258Z,14.32
2022-12-08T10:33:21.033Z,10.75
2022-12-08T10:35:56.560Z,12.32
2022-12-08T10:38:29.299Z,14.88
2022-12-08T10:41:04.856Z,12.35
2022-12-08T10:43:33.303Z,14.43
2022-12-08T10:46:20.553Z,12.43
2022-12-08T10:49:05.461Z,11.82
2022-12-08T10:51:38.011Z,16.02
2022-12-08T10:54:06.288Z,11.00
2022-12-08T10:56:33.499Z,9.65
2022-12-08T10:59:14.605Z,9.20
2022-12-08T11:01:46.729Z,9.50
2022-12-08T11:04:18.413Z,11.43
2022-12-08T11:06:49.038Z,11.63
2022-12-08T11:09:16.771Z,9.90
2022-12-08T11:11:52.478Z,8.98
2022-12-08T11:14:22.231Z,7.35
2022-12-08T11:16:51.691Z,9.40
2022-12-08T11:19:19.880Z,12.32
2022-12-08T11:21:46.598Z,10.85
2022-12-08T11:24:28.629Z,9.82
2022-12-08T11:27:04.094Z,11.68
2022-12-08T11:29:36.198Z,13.80
2022-12-08T11:32:14.662Z,10.35
2022-12-08T11:35:00.735Z,14.25
2022-12-08T11:37:36.104Z,8.27
2022-12-08T11:40:14.761Z,13.00
2022-12-08T11:43:08.739Z,9.68
2022-12-08T11:45:36.524Z,11.57
2022-12-08T11:48:27.360Z,9.07
2022-12-08T11:51:09.112Z,9.18
2022-12-08T11:53:38.919Z,12.13
2022-12-08T11:56:15.392Z,10.68
2022-12-08T11:58:47.318Z,11.52
2022-12-08T12:01:21.253Z,9.38
2022-12-08T12:04:27.968Z,10.80
2022-12-08T12:06:55.585Z,7.47
2022-12-08T12:09:49.683Z,11.55
2022-12-08T12:12:28.397Z,11.32
2022-12-08T12:15:19.902Z,11.80
2022-12-08T12:17:58.438Z,14.55
2022-12-08T12:20:33.856Z,6.75
2022-12-08T12:23:20.100Z,12.75
2022-12-08T12:25:57.099Z,11.00
2022-12-08T12:28:31.037Z,14.48
2022-12-08T12:31:11.665Z,12.13
2022-12-08T12:33:38.673Z,10.13
2022-12-08T12:36:09.084Z,14.27
2022-12-08T12:38:58.750Z,12.48
2022-12-08T12:41:29.169Z,12.80
2022-12-08T12:44:15.656Z,14.50
2022-12-08T12:46:53.509Z,16.77
2022-12-08T12:49:38.954Z,15.35
2022-12-08T12:52:21.298Z,15.38
2022-12-08T12:54:50.771Z,10.07
2022-12-08T12:57:23.343Z,13.57
2022-12-08T12:59:55.596Z,12.55
2022-12-08T13:02:30.549Z,11.02
2022-12-08T13:05:16.078Z,19.85
2022-12-08T13:07:55.246Z,16.25
2022-12-08T13:10:26.966Z,10.00
2022-12-08T13:13:16.537Z,7.43
2022-12-08T13:15:52.433Z,10.00
2022-12-08T13:18:26.995Z,10.17
2022-12-08T13:21:03.352Z,11.73
2022-12-08T13:23:44.374Z,7.72
2022-12-08T13:26:17.341Z,4.30
2022-12-08T13:29:03.628Z,4.30
2022-12-08T13:31:48.387Z,5.88
2022-12-08T13:34:24.904Z,5.10
2022-12-08T13:37:16.042Z,5.40
2022-12-08T13:39:50.918Z,6.20
2022-12-08T13:42:41.432Z,6.15
2022-12-08T13:46:41.946Z,3.00
2022-12-08T13:49:41.899Z,2.03
2022-12-08T13:57:29.789Z,6.28
2022-12-08T14:00:08.111Z,3.58
2022-12-08T14:02:48.183Z,4.47
2022-12-08T14:05:21.689Z,1.98
2022-12-08T14:07:57.125Z,2.20
2022-12-08T14:10:27.842Z,2.38
2022-12-08T14:13:03.064Z,1.80
2022-12-08T14:15:37.201Z,2.15
2022-12-08T14:18:07.794Z,4.60
2022-12-08T14:20:57.897Z,3.63
2022-12-08T14:23:22.785Z,2.45
2022-12-08T14:25:49.641Z,3.00
2022-12-08T14:28:17.135Z,3.28
2022-12-08T14:30:44.703Z,6.22
2022-12-08T14:33:19.275Z,7.57
2022-12-08T14:35:55.325Z,3.13
2022-12-08T14:38:25.014Z,2.08
2022-12-08T14:41:11.222Z,2.38
2022-12-08T14:43:38.014Z,5.57
2022-12-08T14:46:19.513Z,3.60
2022-12-08T14:48:46.839Z,4.95
2022-12-08T14:51:24.421Z,4.97
2022-12-08T14:54:02.545Z,1.67
2022-12-08T14:56:58.143Z,1.60
2022-12-08T14:59:31.269Z,2.08
2022-12-08T15:02:16.306Z,2.40
2022-12-08T15:04:45.939Z,4.82
2022-12-08T15:07:31.294Z,1.85
2022-12-08T15:10:22.837Z,3.80
2022-12-08T15:13:09.504Z,3.95
2022-12-08T15:15:49.998Z,5.30
2022-12-08T15:18:18.340Z,1.70
2022-12-08T15:21:01.052Z,4.25
2022-12-08T15:23:45.128Z,5.28
2022-12-08T15:26:26.361Z,3.38
2022-12-08T15:28:54.082Z,2.75
2022-12-08T15:31:24.105Z,3.47
2022-12-08T15:33:51.098Z,2.72
2022-12-08T15:36:18.295Z,1.98
2022-12-08T15:38:44.967Z,4.38
2022-12-08T15:41:14.985Z,3.42
2022-12-08T15:43:42.158Z,2.63
2022-12-08T15:46:08.952Z,5.53
2022-12-08T15:48:38.347Z,4.80
2022-12-08T15:51:11.388Z,2.90
2022-12-08T15:53:39.177Z,2.70
2022-12-08T15:58:57.333Z,3.22
2022-12-08T16:01:26.244Z,5.47
2022-12-08T16:07:19.625Z,4.28
2022-12-08T16:09:36.366Z,3.63
2022-12-08T16:12:23.161Z,2.67
2022-12-08T16:17:37.738Z,4.30
2022-12-08T16:20:32.715Z,4.13
2022-12-08T16:23:34.201Z,5.40
2022-12-08T16:28:53.778Z,7.68
2022-12-08T16:31:23.385Z,6.85
2022-12-08T16:33:50.393Z,6.05
2022-12-08T16:36:17.057Z,8.02
2022-12-08T16:38:43.751Z,6.72
2022-12-08T16:41:36.304Z,6.15
2022-12-08T16:44:06.010Z,8.75
2022-12-08T16:46:33.771Z,9.77
2022-12-08T16:49:01.000Z,7.07
2022-12-08T16:51:28.312Z,10.38
2022-12-08T16:53:55.766Z,7.10
2022-12-08T16:56:27.523Z,10.25
2022-12-08T16:58:56.781Z,14.10
2022-12-08T17:01:24.409Z,12.65
2022-12-08T17:04:07.475Z,11.88
2022-12-08T17:06:38.383Z,12.00
2022-12-08T17:09:05.512Z,14.23
2022-12-08T17:11:42.389Z,9.70
2022-12-08T17:14:35.560Z,10.48
2022-12-08T17:17:06.711Z,10.98
2022-12-08T17:19:33.793Z,12.15
2022-12-08T17:22:02.348Z,10.90
2022-12-08T17:24:30.094Z,13.90
2022-12-08T17:27:13.493Z,13.90
2022-12-08T17:29:41.562Z,12.00
2022-12-08T17:32:08.330Z,11.85
2022-12-08T17:34:37.426Z,12.32
2022-12-08T17:37:04.134Z,12.35
2022-12-08T17:39:30.901Z,15.10
2022-12-08T17:42:11.590Z,13.73
2022-12-08T17:44:38.249Z,15.90
2022-12-08T17:47:05.714Z,9.68
2022-12-08T17:49:33.963Z,18.45
2022-12-08T17:52:04.079Z,14.40
2022-12-08T17:54:31.113Z,12.60
2022-12-08T17:56:58.816Z,12.88
2022-12-08T17:59:27.648Z,9.15
2022-12-08T18:01:55.991Z,12.02
2022-12-08T18:04:23.358Z,11.05
2022-12-08T18:06:50.197Z,10.85
2022-12-08T18:09:17.592Z,11.70
2022-12-08T18:11:46.322Z,8.77
2022-12-08T18:14:14.416Z,10.23
2022-12-08T18:16:43.915Z,12.68
2022-12-08T18:19:13.786Z,7.80
2022-12-08T18:21:41.526Z,11.55
2022-12-08T18:24:09.699Z,10.20
2022-12-08T18:26:36.551Z,10.93
2022-12-08T18:29:03.882Z,10.07
2022-12-08T18:31:30.648Z,12.05
2022-12-08T18:33:57.512Z,9.38
2022-12-08T18:36:25.662Z,12.70
2022-12-08T18:38:53.545Z,10.55
2022-12-08T18:41:25.727Z,11.40
2022-12-08T18:43:54.621Z,9.43
2022-12-08T18:46:22.223Z,16.63
2022-12-08T18:48:50.235Z,13.30
2022-12-08T18:51:19.843Z,12.90
2022-12-08T18:53:47.196Z,12.05
2022-12-08T18:56:29.300Z,10.00
2022-12-08T18:59:03.784Z,12.13
2022-12-08T19:01:36.406Z,10.93
2022-12-08T19:04:27.836Z,14.15
2022-12-08T19:06:54.044Z,15.75
2022-12-08T19:09:27.577Z,11.02
2022-12-08T19:11:55.599Z,10.98
2022-12-08T19:14:27.898Z,15.55
2022-12-08T19:16:55.569Z,11.65
2022-12-08T19:19:22.653Z,12.30
2022-12-08T19:21:59.119Z,13.18
2022-12-08T19:24:25.914Z,15.90
2022-12-08T19:26:53.124Z,12.75
2022-12-08T19:29:20.291Z,14.18
2022-12-08T19:31:47.297Z,16.25
2022-12-08T19:34:14.661Z,22.67
2022-12-08T19:36:43.130Z,24.50
2022-12-08T19:39:40.676Z,20.75
2022-12-08T19:42:35.294Z,19.55
2022-12-08T19:45:21.612Z,14.55
2022-12-08T19:47:49.201Z,22.37
2022-12-08T19:50:35.424Z,31.65
2022-12-08T19:53:13.712Z,33.92
2022-12-08T19:55:42.021Z,20.77
2022-12-08T19:58:09.807Z,22.48
2022-12-08T20:00:38.483Z,17.02
2022-12-08T20:03:05.618Z,16.23
2022-12-08T20:05:36.363Z,12.70
2022-12-08T20:08:03.361Z,20.52
2022-12-08T20:10:36.778Z,12.70
2022-12-08T20:13:26.253Z,13.35
2022-12-08T20:15:53.405Z,24.02
2022-12-08T20:18:20.524Z,20.98
2022-12-08T20:20:47.873Z,15.88
2022-12-08T20:23:16.364Z,14.60
2022-12-08T20:25:45.757Z,12.77
2022-12-08T20:28:12.700Z,14.23
2022-12-08T20:30:41.834Z,14.82
2022-12-08T20:33:15.404Z,16.60
2022-12-08T20:35:43.307Z,14.40
2022-12-08T20:38:10.247Z,18.98
2022-12-08T20:40:40.959Z,12.38
2022-12-08T20:43:11.806Z,16.73
2022-12-08T20:45:38.522Z,13.88
2022-12-08T20:48:05.925Z,16.33
2022-12-08T20:50:32.724Z,18.90
2022-12-08T20:52:59.578Z,11.13
2022-12-08T20:55:26.645Z,15.35
2022-12-08T20:57:53.724Z,16.63
2022-12-08T21:00:23.515Z,14.80
2022-12-08T21:02:56.340Z,16.08
2022-12-08T21:05:23.859Z,14.88
2022-12-08T21:07:50.709Z,17.30
2022-12-08T21:10:17.965Z,13.63
2022-12-08T21:12:44.669Z,15.35
2022-12-08T21:15:12.652Z,16.90
2022-12-08T21:17:39.880Z,15.63
2022-12-08T21:20:07.818Z,19.15
2022-12-08T21:22:34.982Z,15.95
2022-12-08T21:25:01.930Z,12.95
2022-12-08T21:27:28.754Z,15.90
2022-12-08T21:29:55.967Z,13.50
2022-12-08T21:32:27.221Z,12.48
2022-12-08T21:34:57.009Z,17.65
2022-12-08T21:37:24.545Z,18.95
2022-12-08T21:39:51.526Z,13.25
2022-12-08T21:42:37.394Z,17.23
2022-12-08T21:48:14.979Z,19.20
2022-12-08T21:50:41.997Z,12.75
2022-12-08T21:53:12.830Z,14.40
2022-12-08T21:55:39.769Z,11.10
2022-12-08T21:58:06.610Z,11.57
2022-12-08T22:00:33.597Z,17.48
2022-12-08T22:03:01.846Z,15.50
2022-12-08T22:05:28.909Z,13.02
2022-12-08T22:07:55.683Z,12.63
2022-12-08T22:10:23.760Z,14.07
2022-12-08T22:12:50.488Z,15.45
2022-12-08T22:15:17.287Z,13.43
2022-12-08T22:17:44.182Z,13.18
2022-12-08T22:20:13.745Z,13.95
2022-12-08T22:22:40.947Z,20.13
2022-12-08T22:25:11.877Z,10.48
2022-12-08T22:27:40.169Z,18.48
2022-12-08T22:30:11.979Z,14.60
2022-12-08T22:32:39.453Z,12.40
2022-12-08T22:35:06.570Z,14.27
2022-12-08T22:37:34.620Z,11.20
2022-12-08T22:40:01.438Z,13.05
2022-12-08T22:42:28.301Z,13.20
2022-12-08T22:44:56.335Z,15.40
2022-12-08T22:47:23.442Z,14.73
2022-12-08T22:49:50.098Z,15.85
2022-12-08T22:52:16.707Z,12.50
2022-12-08T22:54:43.634Z,18.13
2022-12-08T22:57:10.380Z,18.20
2022-12-08T22:59:41.413Z,14.20
2022-12-08T23:02:08.685Z,10.85
2022-12-08T23:04:36.426Z,17.67
2022-12-08T23:07:03.458Z,20.30
2022-12-08T23:09:31.211Z,12.98
2022-12-08T23:11:58.126Z,15.82
2022-12-08T23:14:24.788Z,14.82
2022-12-08T23:16:51.742Z,15.65
2022-12-08T23:19:22.167Z,18.38
2022-12-08T23:21:49.839Z,23.77
2022-12-08T23:24:18.010Z,13.30
2022-12-08T23:26:44.834Z,17.75
2022-12-08T23:29:11.493Z,14.20
2022-12-08T23:31:39.134Z,12.93
2022-12-08T23:34:06.080Z,14.40
2022-12-08T23:36:32.996Z,13.52
2022-12-08T23:38:59.731Z,23.75
2022-12-08T23:41:26.546Z,14.32
2022-12-08T23:43:53.299Z,18.08
2022-12-08T23:46:22.602Z,14.57
2022-12-08T23:48:50.804Z,12.88
2022-12-08T23:51:18.089Z,17.00
2022-12-08T23:53:45.504Z,14.88
2022-12-08T23:56:15.056Z,12.25
2022-12-08T23:58:42.796Z,12.25
